WEATHER DATA

YESTERDAY
Time Temp. Dewp. Hum. Wind dir Wind speed Wind gust Bar. 1h Prec. 24h Prec.
00:07 19.3 15.6 79 0 0 1016.6 0.0000 0.0000
00:18 19.1 15.6 80 0 0 1016.7 0.0000 0.0000
00:28 19 15.5 80 0 0 1016.7 0.0000 0.0000
00:38 18.8 15.5 81 0 0 1016.8 0.0000 0.0000
00:48 18.6 15.3 81 0 0 1016.7 0.0000 0.0000
00:58 18.4 15.3 82 0 0 1016.8 0.0000 0.0000
01:08 18.3 15.4 83 0 0 1016.5 0.0000 0.0000
01:17 18.2 15.3 83 0 0 1016.6 0.0000 0.0000
01:28 18 15.1 83 0 0 1016.6 0.0000 0.0000
01:38 17.8 15.1 84 0 0 1016.5 0.0000 0.0000
01:48 17.6 14.9 84 0 0 1016.4 0.0000 0.0000
01:58 17.6 15.1 85 0 0 1016.4 0.0000 0.0000
02:08 17.4 14.9 85 0 0 1016.2 0.0000 0.0000
02:18 17.3 14.9 86 0 0 1016.2 0.0000 0.0000
02:28 17.2 14.8 86 0 0 1016.2 0.0000 0.0000
02:38 17.1 14.7 86 0 0 1016.1 0.0000 0.0000
02:48 17 14.6 86 0 0 1016.1 0.0000 0.0000
02:58 16.8 14.4 86 0 0 1016 0.0000 0.0000
03:09 16.8 14.6 87 0 0 1016 0.0000 0.0000
03:18 16.7 14.5 87 0 0 1015.9 0.0000 0.0000
03:28 16.6 14.4 87 0 0 1015.9 0.0000 0.0000
03:38 16.4 14.4 88 0 0 1015.9 0.0000 0.0000
03:48 16.3 14.3 88 0 0 1015.7 0.0000 0.0000
03:58 16.2 14.2 88 0 0 1015.8 0.0000 0.0000
04:08 16.1 14.3 89 0 0 1015.8 0.0000 0.0000
04:19 16 14.2 89 0 0 1015.6 0.0000 0.0000
04:28 16 14.2 89 0 0 1015.7 0.0000 0.0000
04:38 15.9 14.1 89 0 0 1015.7 0.0000 0.0000
04:49 15.8 14 89 0 0 1015.7 0.0000 0.0000
04:59 15.7 14.1 90 0 0 1015.8 0.0000 0.0000
05:08 15.6 13.8 89 0 0 1015.8 0.0000 0.0000
05:18 15.5 13.9 90 0 0 1015.6 0.0000 0.0000
05:29 15.4 13.8 90 0 0 1015.8 0.0000 0.0000
05:39 15.4 13.8 90 0 0 1015.8 0.0000 0.0000
05:48 15.3 13.7 90 0 0 1015.6 0.0000 0.0000
05:59 15.3 13.7 90 0 0 1015.6 0.0000 0.0000
06:09 15.3 13.8 91 0 0 1015.6 0.0000 0.0000
06:19 15.3 13.8 91 0 0 1015.7 0.0000 0.0000
06:28 15.4 13.9 91 0 0 1015.4 0.0000 0.0000
06:34 15.5 14 91 0 0 1015.4 0.0000 0.0000
06:45 15.6 14.1 91 0 0 1015.6 0.0000 0.0000
06:54 15.8 14.3 91 0 0 1015.7 0.0000 0.0000
07:04 16 14.5 91 0 0 1015.6 0.0000 0.0000
07:15 16.3 14.8 91 0 0 1015.7 0.0000 0.0000
07:24 16.7 15.1 90 0 0 1015.6 0.0000 0.0000
07:34 17.3 15.5 89 0 0 1015.8 0.0000 0.0000
07:45 17.9 15.7 87 0 0 1015.7 0.0000 0.0000
07:55 18.5 15.9 85 0 0 1015.8 0.0000 0.0000
08:04 19.1 16 82 0 0 1015.8 0.0000 0.0000
08:14 19.6 15.9 79 0 0 1015.8 0.0000 0.0000
08:25 20 16.1 78 0 0 1015.7 0.0000 0.0000
08:35 20.4 16 76 0 0 1015.8 0.0000 0.0000
08:44 20.6 16.2 76 0 0 1015.9 0.0000 0.0000
08:55 20.9 16.3 75 0 0 1015.9 0.0000 0.0000
09:05 21.3 16.5 74 0 0 1015.9 0.0000 0.0000
09:15 21.6 16.8 74 0 0 1015.8 0.0000 0.0000
09:25 22 16.9 73 0 0 1015.7 0.0000 0.0000
09:35 22.2 16.9 72 0 0 1015.7 0.0000 0.0000
09:45 22.5 17.2 72 0 0 1015.7 0.0000 0.0000
09:55 22.8 17.3 71 0 0 1015.6 0.0000 0.0000
10:05 23.2 17.7 71 0 0 1015.2 0.0000 0.0000
10:15 23.5 17.7 70 0 0 1015.3 0.0000 0.0000
10:25 23.8 17.8 69 0 0 1015.3 0.0000 0.0000
10:35 24.1 18.1 69 0 0 1015.1 0.0000 0.0000
10:45 24.5 18.2 68 0 0 1015.1 0.0000 0.0000
10:55 24.8 18.5 68 0 0 1015 0.0000 0.0000
11:05 25.1 18.5 67 0 0 1014.9 0.0000 0.0000
11:16 25.5 18.4 65 0 0 1014.9 0.0000 0.0000
11:25 25.8 18.7 65 0 0 1014.9 0.0000 0.0000
11:35 26.1 18.5 63 0 0 1014.7 0.0000 0.0000
11:45 26.3 18.7 63 0 0 1014.6 0.0000 0.0000
11:55 26.5 18.6 62 0 0 1014.5 0.0000 0.0000
12:05 26.8 18.9 62 0 0 1014.4 0.0000 0.0000
12:15 27 17.2 55 0 0 1014.4 0.0000 0.0000
12:26 27.2 17.9 57 0 0 1014.4 0.0000 0.0000
12:35 26.9 17.4 56 0 0 1014.4 0.0000 0.0000
12:45 27.3 18 57 0 0 1014.4 0.0000 0.0000
12:56 27.8 17.9 55 0 0 1014.5 0.0000 0.0000
13:06 28 17.8 54 0 0 1014.3 0.0000 0.0000
13:15 28.2 18 54 0 0 1014.1 0.0000 0.0000
13:25 28.2 18 54 0 0 1014.1 0.0000 0.0000
13:36 28.1 17.9 54 0 0 1014 0.0000 0.0000
13:46 28 17.8 54 0 0 1014.1 0.0000 0.0000
13:55 28.1 18.5 56 0 0 1013.9 0.0000 0.0000
14:06 28.1 18.2 55 0 0 1013.7 0.0000 0.0000
14:16 28.3 18.4 55 0 0 1013.5 0.0000 0.0000
14:26 28.4 18.2 54 0 0 1013.5 0.0000 0.0000
14:35 28.4 18.5 55 0 0 1013.4 0.0000 0.0000
14:46 28.6 18.4 54 0 0 1013.3 0.0000 0.0000
14:56 28.4 18.5 55 0 0 1013.2 0.0000 0.0000
15:05 28.7 18.5 54 0 0 1013.1 0.0000 0.0000
15:16 28.6 18.4 54 0 0 1013.2 0.0000 0.0000
15:26 28.4 17.9 53 0 0 1013.2 0.0000 0.0000
15:36 28.3 18.4 55 0 0 1013 0.0000 0.0000
15:46 28.4 18.2 54 0 0 1013.1 0.0000 0.0000
15:56 28.7 18.2 53 0 0 1013 0.0000 0.0000
16:06 28.8 18 52 0 0 1013.1 0.0000 0.0000
16:16 29 18.2 52 0 0 1013 0.0000 0.0000
16:26 29 18.2 52 0 0 1012.8 0.0000 0.0000
16:36 29.2 18.3 52 0 0 1012.6 0.0000 0.0000
16:46 29.3 18.4 52 0 0 1012.5 0.0000 0.0000
16:56 29.1 18.2 52 0 0 1012.5 0.0000 0.0000
17:06 28.9 18.4 53 0 0 1012.5 0.0000 0.0000
17:16 28.6 18.1 53 0 0 1012.2 0.0000 0.0000
17:26 28.6 18.1 53 0 0 1012.2 0.0000 0.0000
17:36 28.6 18.1 53 0 0 1012.3 0.0000 0.0000
17:46 28.5 18 53 0 0 1012.1 0.0000 0.0000
17:56 28.5 18 53 0 0 1012.2 0.0000 0.0000
18:07 28.4 17.6 52 0 0 1012 0.0000 0.0000
18:16 28.3 18.1 54 0 0 1012.2 0.0000 0.0000
18:26 28.2 18 54 0 0 1012.2 0.0000 0.0000
18:36 28.1 18.2 55 0 0 1012.2 0.0000 0.0000
18:46 28 18.1 55 0 0 1012 0.0000 0.0000
18:56 27.8 18.2 56 0 0 1011.9 0.0000 0.0000
19:06 27.9 18.3 56 0 0 1011.9 0.0000 0.0000
19:17 27.9 18 55 0 0 1012 0.0000 0.0000
19:26 27.8 18.2 56 0 0 1011.9 0.0000 0.0000
19:36 27.8 18.2 56 0 0 1011.9 0.0000 0.0000
19:46 27.7 18.1 56 0 0 1011.9 0.0000 0.0000
19:56 27.7 18.4 57 0 0 1011.9 0.0000 0.0000
20:06 27.6 18.6 58 0 0 1011.8 0.0000 0.0000
20:16 27.5 18.5 58 0 0 1011.8 0.0000 0.0000
20:27 27.4 18.1 57 0 0 1011.6 0.0000 0.0000
20:36 27.3 18.3 58 0 0 1011.5 0.0000 0.0000
20:46 27.1 18.4 59 0 0 1011.6 0.0000 0.0000
20:57 26.9 18.5 60 0 0 1011.5 0.0000 0.0000
21:07 26.6 18.2 60 0 0 1011.5 0.0000 0.0000
21:16 26.4 18.3 61 0 0 1011.5 0.0000 0.0000
21:26 26.1 18.3 62 0 0 1011.6 0.0000 0.0000
21:37 25.8 18.2 63 0 0 1011.5 0.0000 0.0000
21:47 25.5 18.7 66 0 0 1011.7 0.0000 0.0000
21:56 25.2 18.6 67 0 0 1011.6 0.0000 0.0000
22:07 24.9 19.1 70 0 0 1011.7 0.0000 0.0000
22:17 24.6 19.2 72 0 0 1011.8 0.0000 0.0000
22:26 24.3 18.9 72 0 0 1011.7 0.0000 0.0000
22:37 24 18.6 72 0 0 1011.7 0.0000 0.0000
22:47 23.8 18.9 74 0 0 1011.8 0.0000 0.0000
22:57 23.6 18.7 74 0 0 1011.6 0.0000 0.0000
23:06 23.4 18.5 74 0 0 1011.7 0.0000 0.0000
23:17 23.1 18.2 74 0 0 1011.5 0.0000 0.0000
23:27 22.9 18 74 0 0 1011.7 0.0000 0.0000
23:37 22.8 18.1 75 0 0 1011.7 0.0000 0.0000
23:47 22.6 17.9 75 0 0 1011.7 0.0000 0.0000
23:57 22.4 18 76 0 0 1011.9 0.0000 0.0000

DAY STATISTIC

2019-06-18
TEMPERATURE
AVERAGE
23.0
HIGH
29.3
16:46
LOW
15.3
05:48
PRESSURE
AVERAGE
1014.2
HIGH
1016.8
00:38
LOW
1011.5
20:36
DEWPOINT
AVERAGE
16.9
HIGH
19.2
22:17
LOW
13.7
05:48
HUMIDITY
AVERAGE
70
HIGH
91
06:09
LOW
52
16:06
WIND SPEED
AVERAGE
0.0
HIGH
0.0
03:46
WIND GUST
AVERAGE
0.0
HIGH
0.0
03:46
WIND DIRECTION
PREVAILING
%
PRECIPITATION
RAIN HOUR
0.0
RAIN DAY
0.0
TEMPERATURE (°C)
LOW
15.3
HIGH
29.3
AVERAGE
23.0
PRESSURE (hpa)
LOW
1011.5
HIGH
1016.8
AVERAGE
1014.2
DEVICE